sensor_id;sensor_type;location;lat;lon;timestamp;pressure;altitude;pressure_sealevel;temperature;humidity
17593;BME280;8915;51.760;14.300;2022-10-22T00:00:16;100364.97;;;10.75;100.00
17593;BME280;8915;51.760;14.300;2022-10-22T00:02:43;100362.38;;;10.75;100.00
17593;BME280;8915;51.760;14.300;2022-10-22T00:05:10;100347.66;;;10.73;100.00
17593;BME280;8915;51.760;14.300;2022-10-22T00:07:38;100346.81;;;10.72;100.00
17593;BME280;8915;51.760;14.300;2022-10-22T00:10:06;100358.97;;;10.73;100.00
17593;BME280;8915;51.760;14.300;2022-10-22T00:12:34;100368.50;;;10.73;100.00
17593;BME280;8915;51.760;14.300;2022-10-22T00:15:00;100365.91;;;10.73;100.00
17593;BME280;8915;51.760;14.300;2022-10-22T00:17:27;100365.06;;;10.72;100.00
17593;BME280;8915;51.760;14.300;2022-10-22T00:19:53;100362.41;;;10.74;100.00
17593;BME280;8915;51.760;14.300;2022-10-22T00:22:19;100358.97;;;10.73;100.00
17593;BME280;8915;51.760;14.300;2022-10-22T00:24:46;100358.03;;;10.74;100.00
17593;BME280;8915;51.760;14.300;2022-10-22T00:27:13;100367.63;;;10.74;100.00
17593;BME280;8915;51.760;14.300;2022-10-22T00:29:41;100372.03;;;10.72;100.00
17593;BME280;8915;51.760;14.300;2022-10-22T00:32:07;100392.09;;;10.70;100.00
17593;BME280;8915;51.760;14.300;2022-10-22T00:34:34;100390.38;;;10.69;100.00
17593;BME280;8915;51.760;14.300;2022-10-22T00:37:00;100395.63;;;10.67;100.00
17593;BME280;8915;51.760;14.300;2022-10-22T00:39:27;100389.56;;;10.67;100.00
17593;BME280;8915;51.760;14.300;2022-10-22T00:41:55;100374.81;;;10.66;100.00
17593;BME280;8915;51.760;14.300;2022-10-22T00:47:30;100377.53;;;10.63;100.00
17593;BME280;8915;51.760;14.300;2022-10-22T00:49:58;100369.84;;;10.58;100.00
17593;BME280;8915;51.760;14.300;2022-10-22T00:52:25;100351.72;;;10.53;100.00
17593;BME280;8915;51.760;14.300;2022-10-22T00:54:52;100337.19;;;10.46;100.00
17593;BME280;8915;51.760;14.300;2022-10-22T00:57:19;100328.75;;;10.38;100.00
17593;BME280;8915;51.760;14.300;2022-10-22T00:59:47;100330.69;;;10.30;100.00
17593;BME280;8915;51.760;14.300;2022-10-22T01:02:13;100343.00;;;10.24;100.00
17593;BME280;8915;51.760;14.300;2022-10-22T01:04:41;100342.41;;;10.15;100.00
17593;BME280;8915;51.760;14.300;2022-10-22T01:07:12;100339.91;;;10.12;100.00
17593;BME280;8915;51.760;14.300;2022-10-22T01:09:44;100340.97;;;10.04;100.00
17593;BME280;8915;51.760;14.300;2022-10-22T01:12:18;100348.09;;;9.98;100.00
17593;BME280;8915;51.760;14.300;2022-10-22T01:15:01;100350.03;;;9.91;100.00
17593;BME280;8915;51.760;14.300;2022-10-22T01:17:35;100349.28;;;9.86;100.00
17593;BME280;8915;51.760;14.300;2022-10-22T01:20:18;100347.72;;;9.80;100.00
17593;BME280;8915;51.760;14.300;2022-10-22T01:22:57;100342.72;;;9.73;100.00
17593;BME280;8915;51.760;14.300;2022-10-22T01:25:30;100336.03;;;9.64;100.00
17593;BME280;8915;51.760;14.300;2022-10-22T01:28:06;100331.81;;;9.58;100.00
17593;BME280;8915;51.760;14.300;2022-10-22T01:30:40;100326.75;;;9.54;100.00
17593;BME280;8915;51.760;14.300;2022-10-22T01:33:09;100336.47;;;9.47;100.00
17593;BME280;8915;51.760;14.300;2022-10-22T01:35:41;100336.59;;;9.41;100.00
17593;BME280;8915;51.760;14.300;2022-10-22T01:38:12;100346.25;;;9.37;100.00
17593;BME280;8915;51.760;14.300;2022-10-22T01:40:40;100351.56;;;9.33;100.00
17593;BME280;8915;51.760;14.300;2022-10-22T01:43:09;100354.31;;;9.26;100.00
17593;BME280;8915;51.760;14.300;2022-10-22T01:45:38;100350.94;;;9.23;100.00
17593;BME280;8915;51.760;14.300;2022-10-22T01:48:16;100349.28;;;9.20;100.00
17593;BME280;8915;51.760;14.300;2022-10-22T01:51:03;100338.06;;;9.18;100.00
17593;BME280;8915;51.760;14.300;2022-10-22T01:53:39;100342.38;;;9.18;100.00
17593;BME280;8915;51.760;14.300;2022-10-22T01:56:27;100345.94;;;9.15;100.00
17593;BME280;8915;51.760;14.300;2022-10-22T01:59:03;100365.03;;;9.14;100.00
17593;BME280;8915;51.760;14.300;2022-10-22T02:01:39;100368.41;;;9.18;100.00
17593;BME280;8915;51.760;14.300;2022-10-22T02:04:12;100358.88;;;9.18;100.00
17593;BME280;8915;51.760;14.300;2022-10-22T02:06:43;100359.69;;;9.20;100.00
17593;BME280;8915;51.760;14.300;2022-10-22T02:09:12;100357.88;;;9.24;100.00
17593;BME280;8915;51.760;14.300;2022-10-22T02:11:41;100359.56;;;9.25;100.00
17593;BME280;8915;51.760;14.300;2022-10-22T02:14:08;100357.88;;;9.24;100.00
17593;BME280;8915;51.760;14.300;2022-10-22T02:16:39;100357.84;;;9.25;100.00
17593;BME280;8915;51.760;14.300;2022-10-22T02:19:12;100355.25;;;9.24;100.00
17593;BME280;8915;51.760;14.300;2022-10-22T02:21:40;100356.13;;;9.23;100.00
17593;BME280;8915;51.760;14.300;2022-10-22T02:24:06;100351.81;;;9.23;100.00
17593;BME280;8915;51.760;14.300;2022-10-22T02:26:36;100356.13;;;9.23;100.00
17593;BME280;8915;51.760;14.300;2022-10-22T02:29:09;100359.66;;;9.22;100.00
17593;BME280;8915;51.760;14.300;2022-10-22T02:31:40;100359.66;;;9.22;100.00
17593;BME280;8915;51.760;14.300;2022-10-22T02:34:10;100359.69;;;9.20;100.00
17593;BME280;8915;51.760;14.300;2022-10-22T02:36:41;100358.88;;;9.18;100.00
17593;BME280;8915;51.760;14.300;2022-10-22T02:39:09;100359.75;;;9.17;100.00
17593;BME280;8915;51.760;14.300;2022-10-22T02:41:37;100352.84;;;9.16;100.00
17593;BME280;8915;51.760;14.300;2022-10-22T02:44:07;100354.63;;;9.14;100.00
17593;BME280;8915;51.760;14.300;2022-10-22T02:46:34;100353.81;;;9.12;100.00
17593;BME280;8915;51.760;14.300;2022-10-22T02:49:01;100349.47;;;9.11;100.00
17593;BME280;8915;51.760;14.300;2022-10-22T02:51:27;100345.19;;;9.10;100.00
17593;BME280;8915;51.760;14.300;2022-10-22T02:53:55;100338.25;;;9.10;100.00
17593;BME280;8915;51.760;14.300;2022-10-22T02:56:22;100334.81;;;9.08;100.00
17593;BME280;8915;51.760;14.300;2022-10-22T02:58:48;100338.31;;;9.07;100.00
17593;BME280;8915;51.760;14.300;2022-10-22T03:01:15;100333.19;;;9.04;100.00
17593;BME280;8915;51.760;14.300;2022-10-22T03:03:41;100335.00;;;9.02;100.00
17593;BME280;8915;51.760;14.300;2022-10-22T03:06:08;100341.06;;;9.01;100.00
17593;BME280;8915;51.760;14.300;2022-10-22T03:08:34;100335.06;;;8.99;100.00
17593;BME280;8915;51.760;14.300;2022-10-22T03:11:02;100345.47;;;8.99;100.00
17593;BME280;8915;51.760;14.300;2022-10-22T03:13:28;100339.38;;;8.99;100.00
17593;BME280;8915;51.760;14.300;2022-10-22T03:15:55;100342.88;;;8.98;100.00
17593;BME280;8915;51.760;14.300;2022-10-22T03:18:21;100346.34;;;8.98;100.00
17593;BME280;8915;51.760;14.300;2022-10-22T03:20:47;100347.28;;;8.96;100.00
17593;BME280;8915;51.760;14.300;2022-10-22T03:23:17;100347.28;;;8.96;100.00
17593;BME280;8915;51.760;14.300;2022-10-22T03:25:46;100346.41;;;8.95;100.00
17593;BME280;8915;51.760;14.300;2022-10-22T03:28:16;100340.31;;;8.96;100.00
17593;BME280;8915;51.760;14.300;2022-10-22T03:30:43;100341.19;;;8.95;100.00
17593;BME280;8915;51.760;14.300;2022-10-22T03:33:10;100340.38;;;8.93;100.00
17593;BME280;8915;51.760;14.300;2022-10-22T03:35:40;100341.28;;;8.92;100.00
17593;BME280;8915;51.760;14.300;2022-10-22T03:38:07;100347.34;;;8.93;100.00
17593;BME280;8915;51.760;14.300;2022-10-22T03:40:34;100349.91;;;8.94;100.00
17593;BME280;8915;51.760;14.300;2022-10-22T03:43:00;100332.53;;;8.96;100.00
17593;BME280;8915;51.760;14.300;2022-10-22T03:45:28;100344.50;;;9.02;100.00
17593;BME280;8915;51.760;14.300;2022-10-22T03:47:54;100340.13;;;9.04;100.00
17593;BME280;8915;51.760;14.300;2022-10-22T03:50:21;100342.72;;;9.04;100.00
17593;BME280;8915;51.760;14.300;2022-10-22T03:52:47;100342.72;;;9.04;100.00
17593;BME280;8915;51.760;14.300;2022-10-22T03:55:13;100343.63;;;9.03;100.00
17593;BME280;8915;51.760;14.300;2022-10-22T03:57:40;100341.84;;;9.05;100.00
17593;BME280;8915;51.760;14.300;2022-10-22T04:00:08;100340.03;;;9.08;100.00
17593;BME280;8915;51.760;14.300;2022-10-22T04:02:37;100338.28;;;9.09;100.00
17593;BME280;8915;51.760;14.300;2022-10-22T04:05:04;100344.28;;;9.11;100.00
17593;BME280;8915;51.760;14.300;2022-10-22T04:07:30;100359.00;;;9.12;100.00
17593;BME280;8915;51.760;14.300;2022-10-22T04:09:56;100357.25;;;9.13;100.00
17593;BME280;8915;51.760;14.300;2022-10-22T04:12:23;100351.09;;;9.17;100.00
17593;BME280;8915;51.760;14.300;2022-10-22T04:14:49;100360.50;;;9.22;100.00
17593;BME280;8915;51.760;14.300;2022-10-22T04:17:16;100364.69;;;9.28;100.00
17593;BME280;8915;51.760;14.300;2022-10-22T04:19:44;100359.53;;;9.26;100.00
17593;BME280;8915;51.760;14.300;2022-10-22T04:22:10;100355.06;;;9.32;100.00
17593;BME280;8915;51.760;14.300;2022-10-22T04:24:37;100360.25;;;9.32;100.00
17593;BME280;8915;51.760;14.300;2022-10-22T04:27:03;100361.09;;;9.32;100.00
17593;BME280;8915;51.760;14.300;2022-10-22T04:29:29;100357.66;;;9.32;100.00
17593;BME280;8915;51.760;14.300;2022-10-22T04:31:56;100367.22;;;9.31;100.00
17593;BME280;8915;51.760;14.300;2022-10-22T04:34:26;100378.47;;;9.32;100.00
17593;BME280;8915;51.760;14.300;2022-10-22T04:36:53;100380.22;;;9.31;100.00
17593;BME280;8915;51.760;14.300;2022-10-22T04:39:20;100368.03;;;9.33;100.00
17593;BME280;8915;51.760;14.300;2022-10-22T04:41:47;100370.59;;;9.35;100.00
17593;BME280;8915;51.760;14.300;2022-10-22T04:44:13;100374.94;;;9.36;100.00
17593;BME280;8915;51.760;14.300;2022-10-22T04:46:40;100366.16;;;9.38;100.00
17593;BME280;8915;51.760;14.300;2022-10-22T04:49:06;100365.22;;;9.41;100.00
17593;BME280;8915;51.760;14.300;2022-10-22T04:51:33;100370.44;;;9.41;100.00
17593;BME280;8915;51.760;14.300;2022-10-22T04:54:01;100377.44;;;9.39;100.00
17593;BME280;8915;51.760;14.300;2022-10-22T04:56:29;100386.03;;;9.41;100.00
17593;BME280;8915;51.760;14.300;2022-10-22T04:58:58;100382.56;;;9.42;100.00
17593;BME280;8915;51.760;14.300;2022-10-22T05:01:26;100383.22;;;9.50;100.00
17593;BME280;8915;51.760;14.300;2022-10-22T05:03:55;100379.59;;;9.56;100.00
17593;BME280;8915;51.760;14.300;2022-10-22T05:06:22;100376.78;;;9.63;100.00
17593;BME280;8915;51.760;14.300;2022-10-22T05:08:52;100381.16;;;9.63;100.00
17593;BME280;8915;51.760;14.300;2022-10-22T05:11:23;100375.84;;;9.68;100.00
17593;BME280;8915;51.760;14.300;2022-10-22T05:13:51;100372.31;;;9.69;100.00
17593;BME280;8915;51.760;14.300;2022-10-22T05:16:18;100360.97;;;9.73;100.00
17593;BME280;8915;51.760;14.300;2022-10-22T05:18:45;100363.56;;;9.73;100.00
17593;BME280;8915;51.760;14.300;2022-10-22T05:21:13;100368.69;;;9.74;100.00
17593;BME280;8915;51.760;14.300;2022-10-22T05:23:39;100380.03;;;9.73;100.00
17593;BME280;8915;51.760;14.300;2022-10-22T05:26:07;100374.00;;;9.71;100.00
17593;BME280;8915;51.760;14.300;2022-10-22T05:28:36;100383.50;;;9.72;100.00
17593;BME280;8915;51.760;14.300;2022-10-22T05:31:03;100384.31;;;9.74;100.00
17593;BME280;8915;51.760;14.300;2022-10-22T05:33:31;100391.25;;;9.75;100.00
17593;BME280;8915;51.760;14.300;2022-10-22T05:35:58;100383.41;;;9.77;100.00
17593;BME280;8915;51.760;14.300;2022-10-22T05:38:25;100376.41;;;9.79;100.00
17593;BME280;8915;51.760;14.300;2022-10-22T05:40:59;100373.78;;;9.79;100.00
17593;BME280;8915;51.760;14.300;2022-10-22T05:43:27;100372.06;;;9.78;100.00
17593;BME280;8915;51.760;14.300;2022-10-22T05:45:55;100367.69;;;9.80;100.00
17593;BME280;8915;51.760;14.300;2022-10-22T05:48:21;100372.00;;;9.81;100.00
17593;BME280;8915;51.760;14.300;2022-10-22T05:50:47;100378.13;;;9.80;100.00
17593;BME280;8915;51.760;14.300;2022-10-22T05:53:15;100382.50;;;9.78;100.00
17593;BME280;8915;51.760;14.300;2022-10-22T05:55:42;100395.50;;;9.78;100.00
17593;BME280;8915;51.760;14.300;2022-10-22T05:58:09;100399.03;;;9.77;100.00
17593;BME280;8915;51.760;14.300;2022-10-22T06:00:35;100402.50;;;9.76;100.00
17593;BME280;8915;51.760;14.300;2022-10-22T06:03:03;100412.06;;;9.75;100.00
17593;BME280;8915;51.760;14.300;2022-10-22T06:05:29;100411.19;;;9.76;100.00
17593;BME280;8915;51.760;14.300;2022-10-22T06:07:56;100418.06;;;9.79;100.00
17593;BME280;8915;51.760;14.300;2022-10-22T06:10:23;100416.31;;;9.79;100.00
17593;BME280;8915;51.760;14.300;2022-10-22T06:12:49;100420.63;;;9.80;100.00
17593;BME280;8915;51.760;14.300;2022-10-22T06:15:17;100418.75;;;9.85;100.00
17593;BME280;8915;51.760;14.300;2022-10-22T06:17:44;100411.75;;;9.88;100.00
17593;BME280;8915;51.760;14.300;2022-10-22T06:20:13;100416.94;;;9.89;100.00
17593;BME280;8915;51.760;14.300;2022-10-22T06:22:40;100422.91;;;9.93;100.00
17593;BME280;8915;51.760;14.300;2022-10-22T06:25:07;100423.69;;;9.96;100.00
17593;BME280;8915;51.760;14.300;2022-10-22T06:27:33;100434.06;;;9.98;100.00
17593;BME280;8915;51.760;14.300;2022-10-22T06:30:00;100437.47;;;10.00;100.00
17593;BME280;8915;51.760;14.300;2022-10-22T06:32:27;100436.53;;;10.02;100.00
17593;BME280;8915;51.760;14.300;2022-10-22T06:34:53;100432.97;;;10.07;100.00
17593;BME280;8915;51.760;14.300;2022-10-22T06:37:21;100438.91;;;10.12;100.00
17593;BME280;8915;51.760;14.300;2022-10-22T06:39:47;100440.59;;;10.13;100.00
17593;BME280;8915;51.760;14.300;2022-10-22T06:42:14;100430.09;;;10.16;100.00
17593;BME280;8915;51.760;14.300;2022-10-22T06:44:40;100437.78;;;10.20;100.00
17593;BME280;8915;51.760;14.300;2022-10-22T06:47:06;100443.72;;;10.26;100.00
17593;BME280;8915;51.760;14.300;2022-10-22T06:49:33;100446.22;;;10.29;100.00
17593;BME280;8915;51.760;14.300;2022-10-22T06:51:59;100450.50;;;10.33;100.00
17593;BME280;8915;51.760;14.300;2022-10-22T06:54:28;100446.03;;;10.38;100.00
17593;BME280;8915;51.760;14.300;2022-10-22T06:56:54;100445.00;;;10.44;100.00
17593;BME280;8915;51.760;14.300;2022-10-22T06:59:20;100447.41;;;10.50;100.00
17593;BME280;8915;51.760;14.300;2022-10-22T07:01:47;100442.03;;;10.56;100.00
17593;BME280;8915;51.760;14.300;2022-10-22T07:04:13;100455.75;;;10.63;100.00
17593;BME280;8915;51.760;14.300;2022-10-22T07:06:40;100459.94;;;10.68;100.00
17593;BME280;8915;51.760;14.300;2022-10-22T07:09:06;100460.66;;;10.73;100.00
17593;BME280;8915;51.760;14.300;2022-10-22T07:11:39;100452.63;;;10.79;100.00
17593;BME280;8915;51.760;14.300;2022-10-22T07:14:05;100460.34;;;10.84;100.00
17593;BME280;8915;51.760;14.300;2022-10-22T07:16:32;100465.44;;;10.89;100.00
17593;BME280;8915;51.760;14.300;2022-10-22T07:18:58;100472.16;;;10.96;100.00
17593;BME280;8915;51.760;14.300;2022-10-22T07:21:25;100486.81;;;11.00;100.00
17593;BME280;8915;51.760;14.300;2022-10-22T07:23:51;100488.41;;;11.04;100.00
17593;BME280;8915;51.760;14.300;2022-10-22T07:26:18;100490.09;;;11.07;100.00
17593;BME280;8915;51.760;14.300;2022-10-22T07:28:46;100484.75;;;11.10;100.00
17593;BME280;8915;51.760;14.300;2022-10-22T07:31:14;100476.94;;;11.10;100.00
17593;BME280;8915;51.760;14.300;2022-10-22T07:33:40;100490.81;;;11.12;100.00
17593;BME280;8915;51.760;14.300;2022-10-22T07:36:09;100486.34;;;11.15;100.00
17593;BME280;8915;51.760;14.300;2022-10-22T07:38:36;100481.03;;;11.18;100.00
17593;BME280;8915;51.760;14.300;2022-10-22T07:41:03;100491.38;;;11.22;100.00
17593;BME280;8915;51.760;14.300;2022-10-22T07:43:30;100492.13;;;11.25;100.00
17593;BME280;8915;51.760;14.300;2022-10-22T07:45:57;100505.00;;;11.31;100.00
17593;BME280;8915;51.760;14.300;2022-10-22T07:48:24;100498.78;;;11.35;100.00
17593;BME280;8915;51.760;14.300;2022-10-22T07:50:51;100503.91;;;11.39;100.00
17593;BME280;8915;51.760;14.300;2022-10-22T07:53:17;100511.69;;;11.40;100.00
17593;BME280;8915;51.760;14.300;2022-10-22T07:55:47;100511.53;;;11.45;100.00
17593;BME280;8915;51.760;14.300;2022-10-22T07:58:13;100523.69;;;11.46;100.00
17593;BME280;8915;51.760;14.300;2022-10-22T08:00:39;100528.81;;;11.49;100.00
17593;BME280;8915;51.760;14.300;2022-10-22T08:03:08;100531.31;;;11.52;100.00
17593;BME280;8915;51.760;14.300;2022-10-22T08:05:35;100526.84;;;11.55;100.00
17593;BME280;8915;51.760;14.300;2022-10-22T08:08:03;100525.06;;;11.58;100.00
17593;BME280;8915;51.760;14.300;2022-10-22T08:10:30;100518.00;;;11.61;100.00
17593;BME280;8915;51.760;14.300;2022-10-22T08:12:56;100518.75;;;11.65;100.00
17593;BME280;8915;51.760;14.300;2022-10-22T08:15:23;100523.75;;;11.71;100.00
17593;BME280;8915;51.760;14.300;2022-10-22T08:17:51;100521.91;;;11.74;100.00
17593;BME280;8915;51.760;14.300;2022-10-22T08:20:19;100520.84;;;11.80;100.00
17593;BME280;8915;51.760;14.300;2022-10-22T08:22:46;100514.69;;;11.83;100.00
17593;BME280;8915;51.760;14.300;2022-10-22T08:25:13;100512.81;;;11.86;100.00
17593;BME280;8915;51.760;14.300;2022-10-22T08:27:40;100510.09;;;11.89;100.00
17593;BME280;8915;51.760;14.300;2022-10-22T08:30:07;100512.66;;;11.92;100.00
17593;BME280;8915;51.760;14.300;2022-10-22T08:32:34;100522.09;;;11.97;100.00
17593;BME280;8915;51.760;14.300;2022-10-22T08:35:00;100528.13;;;11.99;100.00
17593;BME280;8915;51.760;14.300;2022-10-22T08:37:28;100533.34;;;11.99;100.00
17593;BME280;8915;51.760;14.300;2022-10-22T08:39:54;100534.19;;;11.99;100.00
17593;BME280;8915;51.760;14.300;2022-10-22T08:42:37;100549.84;;;11.99;100.00
17593;BME280;8915;51.760;14.300;2022-10-22T08:45:12;100548.13;;;12.00;100.00
17593;BME280;8915;51.760;14.300;2022-10-22T08:47:51;100547.09;;;12.04;100.00
17593;BME280;8915;51.760;14.300;2022-10-22T08:50:46;100552.25;;;12.07;100.00
17593;BME280;8915;51.760;14.300;2022-10-22T08:53:17;100564.34;;;12.09;100.00
17593;BME280;8915;51.760;14.300;2022-10-22T08:55:45;100558.97;;;12.14;100.00
17593;BME280;8915;51.760;14.300;2022-10-22T08:58:17;100566.63;;;12.19;100.00
17593;BME280;8915;51.760;14.300;2022-10-22T09:00:53;100569.09;;;12.23;100.00
17593;BME280;8915;51.760;14.300;2022-10-22T09:03:30;100568.91;;;12.29;100.00
17593;BME280;8915;51.760;14.300;2022-10-22T09:06:04;100570.50;;;12.34;100.00
17593;BME280;8915;51.760;14.300;2022-10-22T09:08:35;100562.59;;;12.35;100.00
17593;BME280;8915;51.760;14.300;2022-10-22T09:11:08;100559.00;;;12.38;100.00
17593;BME280;8915;51.760;14.300;2022-10-22T09:13:40;100551.06;;;12.41;100.00
17593;BME280;8915;51.760;14.300;2022-10-22T09:16:14;100550.94;;;12.45;100.00
17593;BME280;8915;51.760;14.300;2022-10-22T09:18:45;100547.34;;;12.48;100.00
17593;BME280;8915;51.760;14.300;2022-10-22T09:21:25;100539.28;;;12.54;100.00
17593;BME280;8915;51.760;14.300;2022-10-22T09:24:02;100544.22;;;12.62;100.00
17593;BME280;8915;51.760;14.300;2022-10-22T09:26:32;100543.16;;;12.67;100.00
17593;BME280;8915;51.760;14.300;2022-10-22T09:28:59;100545.44;;;12.77;100.00
17593;BME280;8915;51.760;14.300;2022-10-22T09:31:29;100548.53;;;12.88;100.00
17593;BME280;8915;51.760;14.300;2022-10-22T09:33:56;100542.16;;;12.95;100.00
17593;BME280;8915;51.760;14.300;2022-10-22T09:36:24;100541.84;;;13.03;100.00
17593;BME280;8915;51.760;14.300;2022-10-22T09:38:52;100554.63;;;13.12;100.00
17593;BME280;8915;51.760;14.300;2022-10-22T09:41:23;100552.53;;;13.20;100.00
17593;BME280;8915;51.760;14.300;2022-10-22T09:43:50;100557.66;;;13.23;100.00
17593;BME280;8915;51.760;14.300;2022-10-22T09:46:19;100562.00;;;13.24;100.00
17593;BME280;8915;51.760;14.300;2022-10-22T09:48:47;100563.75;;;13.24;100.00
17593;BME280;8915;51.760;14.300;2022-10-22T09:51:19;100570.50;;;13.30;100.00
17593;BME280;8915;51.760;14.300;2022-10-22T09:53:47;100565.03;;;13.37;100.00
17593;BME280;8915;51.760;14.300;2022-10-22T09:56:25;100566.50;;;13.44;100.00
17593;BME280;8915;51.760;14.300;2022-10-22T09:58:51;100563.75;;;13.48;100.00
17593;BME280;8915;51.760;14.300;2022-10-22T10:01:23;100573.31;;;13.49;100.00
17593;BME280;8915;51.760;14.300;2022-10-22T10:03:51;100567.16;;;13.50;100.00
17593;BME280;8915;51.760;14.300;2022-10-22T10:06:18;100569.72;;;13.51;100.00
17593;BME280;8915;51.760;14.300;2022-10-22T10:08:45;100579.94;;;13.57;100.00
17593;BME280;8915;51.760;14.300;2022-10-22T10:11:18;100576.22;;;13.63;100.00
17593;BME280;8915;51.760;14.300;2022-10-22T10:13:53;100581.97;;;13.73;100.00
17593;BME280;8915;51.760;14.300;2022-10-22T10:16:31;100581.53;;;13.83;100.00
17593;BME280;8915;51.760;14.300;2022-10-22T10:19:15;100589.69;;;13.98;100.00
17593;BME280;8915;51.760;14.300;2022-10-22T10:21:49;100587.56;;;14.08;100.00
17593;BME280;8915;51.760;14.300;2022-10-22T10:24:24;100582.91;;;14.14;100.00
17593;BME280;8915;51.760;14.300;2022-10-22T10:26:58;100582.63;;;14.20;100.00
17593;BME280;8915;51.760;14.300;2022-10-22T10:29:38;100577.22;;;14.25;100.00
17593;BME280;8915;51.760;14.300;2022-10-22T10:32:23;100572.75;;;14.27;100.00
17593;BME280;8915;51.760;14.300;2022-10-22T10:34:59;100562.88;;;14.34;100.00
17593;BME280;8915;51.760;14.300;2022-10-22T10:37:34;100574.66;;;14.44;100.00
17593;BME280;8915;51.760;14.300;2022-10-22T10:40:18;100570.56;;;14.57;100.00
17593;BME280;8915;51.760;14.300;2022-10-22T10:42:54;100569.41;;;14.65;100.00
17593;BME280;8915;51.760;14.300;2022-10-22T10:45:29;100568.09;;;14.75;100.00
17593;BME280;8915;51.760;14.300;2022-10-22T10:48:25;100573.66;;;14.88;100.00
17593;BME280;8915;51.760;14.300;2022-10-22T10:51:01;100565.44;;;14.95;100.00
17593;BME280;8915;51.760;14.300;2022-10-22T10:53:41;100565.00;;;15.05;100.00
17593;BME280;8915;51.760;14.300;2022-10-22T10:56:22;100572.13;;;15.03;100.00
17593;BME280;8915;51.760;14.300;2022-10-22T10:59:02;100573.53;;;15.10;100.00
17593;BME280;8915;51.760;14.300;2022-10-22T11:01:44;100574.38;;;15.10;100.00
17593;BME280;8915;51.760;14.300;2022-10-22T11:04:33;100580.22;;;15.17;100.00
17593;BME280;8915;51.760;14.300;2022-10-22T11:07:10;100588.53;;;15.27;100.00
17593;BME280;8915;51.760;14.300;2022-10-22T11:09:40;100581.28;;;15.32;100.00
17593;BME280;8915;51.760;14.300;2022-10-22T11:12:12;100586.38;;;15.35;100.00
17593;BME280;8915;51.760;14.300;2022-10-22T11:14:47;100585.72;;;15.49;100.00
17593;BME280;8915;51.760;14.300;2022-10-22T11:17:22;100586.94;;;15.61;100.00
17593;BME280;8915;51.760;14.300;2022-10-22T11:19:52;100586.81;;;15.64;100.00
17593;BME280;8915;51.760;14.300;2022-10-22T11:22:27;100587.00;;;15.59;100.00
17593;BME280;8915;51.760;14.300;2022-10-22T11:25:00;100581.53;;;15.64;100.00
17593;BME280;8915;51.760;14.300;2022-10-22T11:27:30;100588.00;;;15.76;100.00
17593;BME280;8915;51.760;14.300;2022-10-22T11:30:03;100584.06;;;15.65;100.00
17593;BME280;8915;51.760;14.300;2022-10-22T11:32:32;100588.94;;;15.75;100.00
17593;BME280;8915;51.760;14.300;2022-10-22T11:35:02;100592.25;;;15.59;100.00
17593;BME280;8915;51.760;14.300;2022-10-22T11:37:31;100595.25;;;15.51;100.00
17593;BME280;8915;51.760;14.300;2022-10-22T11:40:04;100599.50;;;15.54;100.00
17593;BME280;8915;51.760;14.300;2022-10-22T11:42:34;100593.47;;;15.52;100.00
17593;BME280;8915;51.760;14.300;2022-10-22T11:45:04;100596.25;;;15.49;100.00
17593;BME280;8915;51.760;14.300;2022-10-22T11:47:34;100596.38;;;15.46;100.00
17593;BME280;8915;51.760;14.300;2022-10-22T11:50:18;100597.97;;;15.50;100.00
17593;BME280;8915;51.760;14.300;2022-10-22T11:53:01;100594.06;;;15.59;100.00
17593;BME280;8915;51.760;14.300;2022-10-22T11:58:28;100594.50;;;15.67;100.00
17593;BME280;8915;51.760;14.300;2022-10-22T12:00:56;100590.66;;;15.74;100.00
17593;BME280;8915;51.760;14.300;2022-10-22T12:03:37;100590.97;;;15.87;100.00
17593;BME280;8915;51.760;14.300;2022-10-22T12:06:16;100596.09;;;15.90;100.00
17593;BME280;8915;51.760;14.300;2022-10-22T12:08:45;100593.06;;;15.98;100.00
17593;BME280;8915;51.760;14.300;2022-10-22T12:11:20;100591.69;;;15.90;100.00
17593;BME280;8915;51.760;14.300;2022-10-22T12:13:56;100596.38;;;15.84;100.00
17593;BME280;8915;51.760;14.300;2022-10-22T12:16:25;100594.81;;;15.80;100.00
17593;BME280;8915;51.760;14.300;2022-10-22T12:19:00;100597.78;;;15.72;100.00
17593;BME280;8915;51.760;14.300;2022-10-22T12:21:28;100598.56;;;15.74;100.00
17593;BME280;8915;51.760;14.300;2022-10-22T12:23:54;100595.75;;;15.79;100.00
17593;BME280;8915;51.760;14.300;2022-10-22T12:26:25;100593.25;;;15.76;100.00
17593;BME280;8915;51.760;14.300;2022-10-22T12:28:56;100591.31;;;15.79;100.00
17593;BME280;8915;51.760;14.300;2022-10-22T12:31:23;100591.81;;;15.87;100.00
17593;BME280;8915;51.760;14.300;2022-10-22T12:33:56;100590.03;;;15.88;100.00
17593;BME280;8915;51.760;14.300;2022-10-22T12:36:24;100586.16;;;15.95;100.00
17593;BME280;8915;51.760;14.300;2022-10-22T12:38:51;100585.75;;;16.04;100.00
17593;BME280;8915;51.760;14.300;2022-10-22T12:41:18;100585.75;;;16.04;100.00
17593;BME280;8915;51.760;14.300;2022-10-22T12:43:45;100595.31;;;16.05;100.00
17593;BME280;8915;51.760;14.300;2022-10-22T12:46:12;100584.19;;;16.18;100.00
17593;BME280;8915;51.760;14.300;2022-10-22T12:48:42;100588.59;;;16.17;100.00
17593;BME280;8915;51.760;14.300;2022-10-22T12:51:15;100594.41;;;16.24;100.00
17593;BME280;8915;51.760;14.300;2022-10-22T12:53:46;100596.16;;;16.23;100.00
17593;BME280;8915;51.760;14.300;2022-10-22T12:56:15;100604.38;;;16.35;100.00
17593;BME280;8915;51.760;14.300;2022-10-22T12:58:45;100608.19;;;16.46;100.00
17593;BME280;8915;51.760;14.300;2022-10-22T13:01:14;100607.03;;;16.52;100.00